Jerusalem, OH (43747)

12:40 PM EDT die 24o July, anno 2017 (GMT -0400)
Jerusalem | | Change Station

Elev 1253 ft 39.86 °N, 81.11 °W | Updated 4 seconds ago

Plerumque Nubila
Plerumque Nubila
79.9 °F
Feels Like 84 °F
N
2.0
Ventus Variabilis Ventus from Inter Aquilonem et Eurum
Gusts 5.0 mph

Hodie
High -- | Low -- °F
--% Chance of Precip.
Yesterday
High -- | Low -- °F
Precip. -- in
Pressio 29.89 in
Visibilitas 10.0 milia passuum
Clouds Nubes Dispersae 1400 ft
Plerumque Nubila 1900 ft
Aequaliter Nubila 2600 ft
Index Caloris 84 °F
Frigus in quo Ros apparet 74 °F
Umor 82%
Rainfall 0.00 in
Snow Depth Not available.
6:16 AM 8:45 PM
New, 2% visible
SPECI KHLG 241628Z 30005KT 10SM SCT014 BKN019 OVC026 24/20 A2989 RMK AO2 T02390200
Pressio 29.89 in
Visibilitas 10.0 milia passuum
Clouds Nubes Dispersae 1400 ft
Plerumque Nubila 1900 ft
Aequaliter Nubila 2600 ft
Index Caloris 84 °F
Frigus in quo Ros apparet 74 °F
Umor 82%
Rainfall 0.00 in
Snow Depth Not available.
6:16 AM 8:45 PM
New, 2% visible
SPECI KHLG 241628Z 30005KT 10SM SCT014 BKN019 OVC026 24/20 A2989 RMK AO2 T02390200

Get Severe Weather Alerts

Thanks for signing up!

Be on the lookout for a verification email in your inbox.

You'll start receiving the daily forecast at 6 AM.

×

10-Day Weather Forecast

Almanac

Astronomy

Jul. 24, 2017 Rise Set
Actual Time
Civil Twilight
Nautical Twilight
Astronomical Twilight
Moon
Length Of Visible Light
Length of Day
Tomorrow will be .
, % of the Moon is Illuminated

Today's Extremes

State Highs State Lows

Community

WunderPhotos

Category 6

Welcome to Category 6. This is the collective home for Weather Underground's featured writeups by Dr. Jeff Masters (right), Bob Henson (left), Chris Burt, and other regular contributors.

Nearby

Air Quality

  Air Quality AQ Index Pollutant
Not available.

Snow Depth

Station Depth Elevation

Earthquake Activity

City Distance Mag. Time & Date
Minimum magnitude displayed is 2.5.

Coastal Water Temperatures

Locus Calor

Stations

Nearby Weather Stations

Station Location Temp Frigus Venti Frigus in quo Ros apparet Umor Ventus Precip. Elev Renovata Type
                   

Watches & Warnings

There are currently no watches in effect.